createdAt,value
2016-04-16T00:00:20.352Z,0
2016-04-16T00:01:20.355Z,0
2016-04-16T00:02:20.358Z,0
2016-04-16T00:03:20.361Z,0
2016-04-16T00:04:20.348Z,0
2016-04-16T00:05:20.350Z,0
2016-04-16T00:06:20.353Z,0
2016-04-16T00:07:20.355Z,0
2016-04-16T00:08:20.358Z,0
2016-04-16T00:09:20.361Z,0
2016-04-16T00:10:20.363Z,0
2016-04-16T00:11:20.366Z,0
2016-04-16T00:12:20.368Z,0
2016-04-16T00:13:20.371Z,0
2016-04-16T00:14:20.374Z,0
2016-04-16T00:15:20.362Z,0
2016-04-16T00:16:20.349Z,0
2016-04-16T00:17:20.352Z,0
2016-04-16T00:18:20.354Z,0
2016-04-16T00:19:20.357Z,0
2016-04-16T00:20:20.359Z,0
2016-04-16T00:21:20.206Z,0
2016-04-16T00:22:20.209Z,0
2016-04-16T00:23:20.368Z,0
2016-04-16T00:24:20.356Z,0
2016-04-16T00:25:20.358Z,0
2016-04-16T00:26:20.361Z,0
2016-04-16T00:27:20.347Z,0
2016-04-16T00:28:20.366Z,0
2016-04-16T00:29:20.369Z,0
2016-04-16T00:30:20.355Z,0
2016-04-16T00:31:20.358Z,0
2016-04-16T00:32:20.360Z,0
2016-04-16T00:33:20.363Z,0
2016-04-16T00:34:20.350Z,0
2016-04-16T00:35:20.353Z,0
2016-04-16T00:36:20.356Z,0
2016-04-16T00:37:20.343Z,0
2016-04-16T00:38:20.361Z,0
2016-04-16T00:39:20.363Z,0
2016-04-16T00:40:20.351Z,0
2016-04-16T00:41:20.354Z,0
2016-04-16T00:42:20.356Z,0
2016-04-16T00:43:20.359Z,0
2016-04-16T00:44:20.361Z,0
2016-04-16T00:45:20.364Z,0
2016-04-16T00:46:20.351Z,0
2016-04-16T00:47:20.354Z,0
2016-04-16T00:48:20.373Z,0
2016-04-16T00:49:20.376Z,0
2016-04-16T00:50:20.362Z,0
2016-04-16T00:51:20.365Z,0
2016-04-16T00:52:20.367Z,0
2016-04-16T00:53:20.355Z,0
2016-04-16T00:54:20.357Z,0
2016-04-16T00:55:20.360Z,0
2016-04-16T00:56:20.363Z,0
2016-04-16T00:57:20.365Z,0
2016-04-16T00:58:20.368Z,0
2016-04-16T00:59:20.370Z,0
2016-04-16T01:00:20.358Z,0
2016-04-16T01:01:20.360Z,0
2016-04-16T01:02:20.347Z,0
2016-04-16T01:03:20.350Z,0
2016-04-16T01:04:20.353Z,0
2016-04-16T01:05:20.466Z,0
2016-04-16T01:06:20.358Z,0
2016-04-16T01:07:20.346Z,0
2016-04-16T01:08:20.363Z,0
2016-04-16T01:09:20.351Z,0
2016-04-16T01:10:20.354Z,0
2016-04-16T01:11:20.371Z,0
2016-04-16T01:12:20.359Z,0
2016-04-16T01:13:20.361Z,0
2016-04-16T01:14:20.349Z,0
2016-04-16T01:15:20.351Z,0
2016-04-16T01:16:20.354Z,0
2016-04-16T01:17:20.356Z,0
2016-04-16T01:18:20.359Z,0
2016-04-16T01:19:20.346Z,0
2016-04-16T01:20:20.255Z,0
2016-04-16T01:21:20.352Z,0
2016-04-16T01:22:20.401Z,0
2016-04-16T01:23:20.357Z,0
2016-04-16T01:24:20.344Z,0
2016-04-16T01:25:20.347Z,0
2016-04-16T01:26:20.349Z,0
2016-04-16T01:27:20.352Z,0
2016-04-16T01:28:20.355Z,0
2016-04-16T01:29:20.373Z,0
2016-04-16T01:30:20.375Z,0
2016-04-16T01:31:20.378Z,0
2016-04-16T01:32:20.366Z,0
2016-04-16T01:33:20.368Z,0
2016-04-16T01:34:20.355Z,0
2016-04-16T01:35:20.577Z,0
2016-04-16T01:36:20.344Z,0
2016-04-16T01:37:20.347Z,0
2016-04-16T01:38:20.350Z,0
2016-04-16T01:39:20.352Z,0
2016-04-16T01:40:20.355Z,0
2016-04-16T01:41:20.358Z,0
2016-04-16T01:42:20.345Z,0
2016-04-16T01:43:20.363Z,0
2016-04-16T01:44:20.351Z,0
2016-04-16T01:45:20.354Z,0
2016-04-16T01:46:20.357Z,0
2016-04-16T01:47:20.360Z,0
2016-04-16T01:48:20.362Z,0
2016-04-16T01:49:20.349Z,0
2016-04-16T01:50:20.523Z,0
2016-04-16T01:51:20.354Z,0
2016-04-16T01:52:20.356Z,0
2016-04-16T01:53:20.344Z,0
2016-04-16T01:54:20.347Z,0
2016-04-16T01:55:20.350Z,0
2016-04-16T01:56:20.368Z,0
2016-04-16T01:57:20.355Z,0
2016-04-16T01:58:20.358Z,0
2016-04-16T01:59:20.360Z,0
2016-04-16T02:00:20.347Z,0
2016-04-16T02:01:20.365Z,0
2016-04-16T02:02:20.352Z,0
2016-04-16T02:03:20.359Z,0
2016-04-16T02:04:20.189Z,0
2016-04-16T02:05:20.473Z,0
2016-04-16T02:06:20.351Z,0
2016-04-16T02:07:20.339Z,0
2016-04-16T02:08:20.388Z,0
2016-04-16T02:09:20.344Z,0
2016-04-16T02:10:20.347Z,0
2016-04-16T02:11:20.350Z,0
2016-04-16T02:12:20.368Z,0
2016-04-16T02:13:20.355Z,0
2016-04-16T02:14:20.358Z,0
2016-04-16T02:15:20.344Z,0
2016-04-16T02:16:20.363Z,0
2016-04-16T02:17:20.349Z,0
2016-04-16T02:18:20.352Z,0
2016-04-16T02:19:20.355Z,0
2016-04-16T02:20:20.311Z,0
2016-04-16T02:21:20.360Z,0
2016-04-16T02:22:20.350Z,0
2016-04-16T02:23:20.352Z,0
2016-04-16T02:24:20.355Z,0
2016-04-16T02:25:20.357Z,0
2016-04-16T02:26:20.345Z,0
2016-04-16T02:27:20.332Z,0
2016-04-16T02:28:20.350Z,0
2016-04-16T02:29:20.354Z,0
2016-04-16T02:30:20.356Z,0
2016-04-16T02:31:20.343Z,0
2016-04-16T02:32:20.345Z,0
2016-04-16T02:33:20.348Z,0
2016-04-16T02:34:20.350Z,0
2016-04-16T02:35:20.353Z,0
2016-04-16T02:36:20.356Z,0
2016-04-16T02:37:20.343Z,0
2016-04-16T02:38:20.362Z,0
2016-04-16T02:39:20.333Z,0
2016-04-16T02:40:20.351Z,0
2016-04-16T02:41:20.338Z,0
2016-04-16T02:42:20.341Z,0
2016-04-16T02:43:20.358Z,0
2016-04-16T02:44:20.387Z,0
2016-04-16T02:45:20.433Z,0
2016-04-16T02:46:20.493Z,0
2016-04-16T02:47:20.524Z,0
2016-04-16T02:48:20.553Z,0
2016-04-16T02:49:20.572Z,0
2016-04-16T02:50:20.606Z,0
2016-04-16T02:51:20.608Z,0
2016-04-16T02:52:20.626Z,0
2016-04-16T02:53:20.645Z,0
2016-04-16T02:54:20.638Z,0
2016-04-16T02:55:20.646Z,0
2016-04-16T02:56:20.639Z,0
2016-04-16T02:57:27.116Z,0
2016-04-16T02:58:20.671Z,0
2016-04-16T02:59:20.660Z,0
2016-04-16T03:00:20.665Z,0
2016-04-16T03:01:20.669Z,0
2016-04-16T03:02:20.659Z,0
2016-04-16T03:03:20.679Z,0
2016-04-16T03:04:20.682Z,0
2016-04-16T03:05:20.686Z,0
2016-04-16T03:06:20.673Z,0
2016-04-16T03:07:20.677Z,0
2016-04-16T03:08:20.665Z,0
2016-04-16T03:09:20.683Z,0
2016-04-16T03:10:20.671Z,0
2016-04-16T03:11:20.690Z,0
2016-04-16T03:12:20.678Z,0
2016-04-16T03:13:20.681Z,0
2016-04-16T03:14:20.683Z,0
2016-04-16T03:15:20.670Z,0
2016-04-16T03:16:20.689Z,0
2016-04-16T03:17:20.659Z,0
2016-04-16T03:18:20.678Z,0
2016-04-16T03:19:20.680Z,0
2016-04-16T03:20:20.668Z,0
2016-04-16T03:21:20.686Z,0
2016-04-16T03:22:20.673Z,0
2016-04-16T03:23:20.675Z,0
2016-04-16T03:24:20.678Z,0
2016-04-16T03:25:20.665Z,0
2016-04-16T03:26:20.668Z,0
2016-04-16T03:27:20.686Z,0
2016-04-16T03:28:20.689Z,0
2016-04-16T03:29:20.692Z,0
2016-04-16T03:30:20.679Z,0
2016-04-16T03:31:20.682Z,0
2016-04-16T03:32:20.669Z,0
2016-04-16T03:33:20.671Z,0
2016-04-16T03:34:20.674Z,0
2016-04-16T03:35:20.676Z,0
2016-04-16T03:36:20.679Z,0
2016-04-16T03:37:20.667Z,0
2016-04-16T03:38:20.670Z,0
2016-04-16T03:39:20.672Z,0
2016-04-16T03:40:20.675Z,0
2016-04-16T03:41:20.662Z,0
2016-04-16T03:42:20.664Z,0
2016-04-16T03:43:20.684Z,0
2016-04-16T03:44:20.686Z,0
2016-04-16T03:45:20.673Z,0
2016-04-16T03:46:20.675Z,0
2016-04-16T03:47:20.662Z,0
2016-04-16T03:48:20.665Z,0
2016-04-16T03:49:20.667Z,0
2016-04-16T03:50:20.686Z,0
2016-04-16T03:51:20.688Z,0
2016-04-16T03:52:20.692Z,0
2016-04-16T03:53:20.678Z,0
2016-04-16T03:54:20.681Z,0
2016-04-16T03:55:20.668Z,0
2016-04-16T03:56:20.671Z,0
2016-04-16T03:57:20.674Z,0
2016-04-16T03:58:20.660Z,0
2016-04-16T03:59:20.679Z,0
2016-04-16T04:00:20.665Z,0
2016-04-16T04:01:20.668Z,4
2016-04-16T04:02:20.671Z,4
2016-04-16T04:03:20.674Z,4
2016-04-16T04:04:20.521Z,0
2016-04-16T04:05:20.663Z,4
2016-04-16T04:06:20.666Z,4
2016-04-16T04:07:20.653Z,4
2016-04-16T04:08:20.656Z,8
2016-04-16T04:09:20.659Z,8
2016-04-16T04:10:20.662Z,8
2016-04-16T04:11:20.680Z,8
2016-04-16T04:12:20.667Z,12
2016-04-16T04:13:20.670Z,12
2016-04-16T04:14:20.656Z,16
2016-04-16T04:15:20.659Z,20
2016-04-16T04:16:20.678Z,20
2016-04-16T04:17:20.664Z,28
2016-04-16T04:18:20.667Z,32
2016-04-16T04:19:20.670Z,36
2016-04-16T04:20:20.673Z,40
2016-04-16T04:21:20.661Z,48
2016-04-16T04:22:20.663Z,56
2016-04-16T04:23:20.666Z,60
2016-04-16T04:24:20.668Z,72
2016-04-16T04:25:20.655Z,76
2016-04-16T04:26:20.673Z,88
2016-04-16T04:27:20.660Z,96
2016-04-16T04:28:20.663Z,100
2016-04-16T04:29:20.666Z,104
2016-04-16T04:30:20.653Z,104
2016-04-16T04:31:20.655Z,120
2016-04-16T04:32:20.674Z,136
2016-04-16T04:33:20.660Z,148
2016-04-16T04:34:20.664Z,136
2016-04-16T04:35:20.651Z,164
2016-04-16T04:36:20.669Z,180
2016-04-16T04:37:20.672Z,192
2016-04-16T04:38:20.659Z,200
2016-04-16T04:39:20.662Z,204
2016-04-16T04:40:20.648Z,216
2016-04-16T04:41:20.667Z,236
2016-04-16T04:42:20.653Z,276
2016-04-16T04:43:20.657Z,312
2016-04-16T04:44:20.659Z,352
2016-04-16T04:45:20.662Z,372
2016-04-16T04:46:20.649Z,388
2016-04-16T04:47:20.651Z,392
2016-04-16T04:48:20.654Z,420
2016-04-16T04:49:20.656Z,456
2016-04-16T04:50:20.644Z,472
2016-04-16T04:51:20.662Z,488
2016-04-16T04:52:20.650Z,516
2016-04-16T04:53:20.653Z,512
2016-04-16T04:54:20.670Z,504
2016-04-16T04:55:20.658Z,548
2016-04-16T04:56:20.660Z,604
2016-04-16T04:57:20.663Z,632
2016-04-16T04:58:20.493Z,676
2016-04-16T04:59:20.653Z,688
2016-04-16T05:00:20.655Z,688
2016-04-16T05:01:20.658Z,760
2016-04-16T05:02:20.646Z,776
2016-04-16T05:03:20.648Z,812
2016-04-16T05:04:20.651Z,840
2016-04-16T05:05:20.668Z,892
2016-04-16T05:06:24.218Z,1024
2016-04-16T05:07:20.643Z,1124
2016-04-16T05:08:20.649Z,1216
2016-04-16T05:09:20.651Z,1260
2016-04-16T05:10:20.654Z,1252
2016-04-16T05:11:20.656Z,1340
2016-04-16T05:12:20.660Z,1512
2016-04-16T05:13:20.662Z,1816
2016-04-16T05:14:20.681Z,2068
2016-04-16T05:15:20.637Z,2312
2016-04-16T05:16:20.654Z,3128
2016-04-16T05:17:20.641Z,3704
2016-04-16T05:18:20.644Z,3916
2016-04-16T05:19:20.647Z,4048
2016-04-16T05:20:20.650Z,3940
2016-04-16T05:21:20.653Z,4084
2016-04-16T05:22:20.656Z,4660
2016-04-16T05:23:20.642Z,5560
2016-04-16T05:24:20.645Z,6104
2016-04-16T05:25:20.648Z,5652
2016-04-16T05:26:20.650Z,4900
2016-04-16T05:27:20.652Z,4388
2016-04-16T05:28:20.656Z,5088
2016-04-16T05:29:20.658Z,5452
2016-04-16T05:30:20.661Z,5252
2016-04-16T05:31:20.664Z,5424
2016-04-16T05:32:20.651Z,6300
2016-04-16T05:33:20.653Z,6288
2016-04-16T05:34:20.640Z,6584
2016-04-16T05:35:20.658Z,4788
2016-04-16T05:36:20.646Z,6352
2016-04-16T05:37:20.649Z,6424
2016-04-16T05:38:20.651Z,4296
2016-04-16T05:39:20.654Z,4204
2016-04-16T05:40:20.657Z,3664
2016-04-16T05:41:20.660Z,2608
2016-04-16T05:42:20.662Z,3180
2016-04-16T05:43:20.665Z,2880
2016-04-16T05:44:20.667Z,2624
2016-04-16T05:45:20.670Z,2836
2016-04-16T05:46:20.657Z,3256
2016-04-16T05:47:20.675Z,3404
2016-04-16T05:48:20.679Z,3580
2016-04-16T05:49:20.650Z,4240
2016-04-16T05:50:20.668Z,3668
2016-04-16T05:51:20.686Z,3756
2016-04-16T05:52:20.673Z,4920
2016-04-16T05:53:20.676Z,4828
2016-04-16T05:54:20.678Z,4416
2016-04-16T05:55:20.681Z,4784
2016-04-16T05:56:20.669Z,4928
2016-04-16T05:57:20.686Z,6088
2016-04-16T05:58:20.705Z,6224
2016-04-16T05:59:20.691Z,4796
2016-04-16T06:00:20.680Z,5220
2016-04-16T06:01:20.682Z,5356
2016-04-16T06:02:20.685Z,5364
2016-04-16T06:03:20.687Z,5348
2016-04-16T06:04:20.690Z,5492
2016-04-16T06:05:20.693Z,5728
2016-04-16T06:06:20.695Z,6216
2016-04-16T06:07:20.682Z,6040
2016-04-16T06:08:20.622Z,6660
2016-04-16T06:10:20.690Z,5556
2016-04-16T06:11:20.693Z,5340
2016-04-16T06:12:20.696Z,5108
2016-04-16T06:13:20.699Z,5300
2016-04-16T06:14:20.732Z,5016
2016-04-16T06:15:20.704Z,4640
2016-04-16T06:16:20.707Z,4772
2016-04-16T06:17:20.710Z,5836
2016-04-16T06:18:20.759Z,5516
2016-04-16T06:19:20.715Z,6040
2016-04-16T06:20:20.717Z,5944
2016-04-16T06:21:20.720Z,7040
2016-04-16T06:22:20.722Z,7868
2016-04-16T06:23:20.726Z,6608
2016-04-16T06:24:20.728Z,4944
2016-04-16T06:25:20.731Z,4536
2016-04-16T06:26:20.734Z,4200
2016-04-16T06:27:20.736Z,4244
2016-04-16T06:28:20.722Z,4364
2016-04-16T06:29:20.726Z,4352
2016-04-16T06:30:20.728Z,4236
2016-04-16T06:31:20.731Z,4276
2016-04-16T06:32:20.733Z,3852
2016-04-16T06:33:20.736Z,3712
2016-04-16T06:34:20.739Z,3284
2016-04-16T06:35:20.726Z,3208
2016-04-16T06:36:20.745Z,3204
2016-04-16T06:37:20.732Z,2900
2016-04-16T06:38:20.782Z,2728
2016-04-16T06:39:20.737Z,2872
2016-04-16T06:40:20.755Z,2772
2016-04-16T06:41:20.743Z,2252
2016-04-16T06:42:20.746Z,1900
2016-04-16T06:43:20.749Z,1584
2016-04-16T06:44:20.751Z,1344
2016-04-16T06:45:20.754Z,1144
2016-04-16T06:46:20.756Z,960
2016-04-16T06:47:20.759Z,828
2016-04-16T06:48:20.762Z,784
2016-04-16T06:49:20.779Z,760
2016-04-16T06:50:20.767Z,800
2016-04-16T06:51:20.926Z,824
2016-04-16T06:52:20.757Z,772
2016-04-16T06:53:20.759Z,800
2016-04-16T06:54:20.778Z,812
2016-04-16T06:55:20.765Z,808
2016-04-16T06:56:20.767Z,1364
2016-04-16T06:57:20.770Z,1632
2016-04-16T06:58:20.773Z,1508
2016-04-16T06:59:20.775Z,1808
2016-04-16T07:00:20.778Z,2112
2016-04-16T07:01:20.781Z,2216
2016-04-16T07:02:20.783Z,2444
2016-04-16T07:03:20.786Z,2380
2016-04-16T07:04:20.773Z,2716
2016-04-16T07:05:20.775Z,2404
2016-04-16T07:06:20.716Z,1908
2016-04-16T07:07:20.781Z,2316
2016-04-16T07:08:20.783Z,2120
2016-04-16T07:09:20.786Z,1952
2016-04-16T07:10:20.773Z,2024
2016-04-16T07:11:20.792Z,1940
2016-04-16T07:12:20.795Z,1700
2016-04-16T07:13:20.796Z,1564
2016-04-16T07:14:20.800Z,1752
2016-04-16T07:15:20.802Z,1980
2016-04-16T07:16:20.805Z,1936
2016-04-16T07:17:20.808Z,1932
2016-04-16T07:18:20.795Z,1492
2016-04-16T07:19:20.813Z,1368
2016-04-16T07:20:20.815Z,1376
2016-04-16T07:21:20.709Z,1264
2016-04-16T07:22:20.650Z,1024
2016-04-16T07:23:20.808Z,916
2016-04-16T07:24:20.826Z,876
2016-04-16T07:25:20.798Z,888
2016-04-16T07:26:20.801Z,908
2016-04-16T07:27:20.803Z,1000
2016-04-16T07:28:20.806Z,1084
2016-04-16T07:29:20.809Z,1192
2016-04-16T07:30:20.812Z,1320
2016-04-16T07:31:20.815Z,1340
2016-04-16T07:32:20.817Z,1380
2016-04-16T07:33:20.820Z,1684
2016-04-16T07:34:20.807Z,1884
2016-04-16T07:35:20.810Z,1580
2016-04-16T07:36:20.844Z,1408
2016-04-16T07:37:20.815Z,1560
2016-04-16T07:38:20.802Z,1368
2016-04-16T07:39:20.820Z,1276
2016-04-16T07:40:20.823Z,1496
2016-04-16T07:41:20.827Z,1548
2016-04-16T07:42:20.812Z,1988
2016-04-16T07:43:20.831Z,2268
2016-04-16T07:44:20.818Z,2200
2016-04-16T07:45:20.821Z,2420
2016-04-16T07:46:20.824Z,2424
2016-04-16T07:47:20.827Z,2724
2016-04-16T07:48:20.829Z,2204
2016-04-16T07:49:20.832Z,1992
2016-04-16T07:50:20.834Z,1604
2016-04-16T07:51:20.884Z,1832
2016-04-16T07:52:20.840Z,1716
2016-04-16T07:53:20.827Z,1924
2016-04-16T07:54:20.845Z,1820
2016-04-16T07:55:20.848Z,1864
2016-04-16T07:56:20.851Z,2004
2016-04-16T07:57:20.838Z,2076
2016-04-16T07:58:20.855Z,2204
2016-04-16T07:59:20.842Z,2068
2016-04-16T08:00:20.831Z,1804
2016-04-16T08:01:20.848Z,2204
2016-04-16T08:02:20.835Z,2620
2016-04-16T08:03:20.838Z,2964
2016-04-16T08:04:20.841Z,3100
2016-04-16T08:05:20.844Z,3196
2016-04-16T08:06:20.736Z,3500
2016-04-16T08:07:20.864Z,3368
2016-04-16T08:08:20.836Z,3844
2016-04-16T08:09:20.839Z,3764
2016-04-16T08:10:20.841Z,3648
2016-04-16T08:11:20.844Z,3256
2016-04-16T08:12:20.846Z,2820
2016-04-16T08:13:20.849Z,2676
2016-04-16T08:14:20.852Z,2540
2016-04-16T08:15:20.854Z,2324
2016-04-16T08:16:20.858Z,2264
2016-04-16T08:17:20.849Z,2080
2016-04-16T08:18:20.868Z,1948
2016-04-16T08:19:20.855Z,1956
2016-04-16T08:20:20.857Z,2200
2016-04-16T08:21:20.859Z,2300
2016-04-16T08:22:20.848Z,2480
2016-04-16T08:23:20.865Z,2380
2016-04-16T08:24:20.868Z,2216
2016-04-16T08:25:20.855Z,2096
2016-04-16T08:26:20.858Z,1932
2016-04-16T08:27:20.861Z,1768
2016-04-16T08:28:20.894Z,1716
2016-04-16T08:29:20.897Z,1736
2016-04-16T08:30:20.869Z,1624
2016-04-16T08:31:20.872Z,1612
2016-04-16T08:32:20.889Z,1548
2016-04-16T08:33:20.877Z,1552
2016-04-16T08:34:20.880Z,1748
2016-04-16T08:35:20.882Z,1884
2016-04-16T08:36:20.885Z,1776
2016-04-16T08:37:20.888Z,1744
2016-04-16T08:38:20.874Z,1744
2016-04-16T08:39:20.893Z,1816
2016-04-16T08:40:20.880Z,1812
2016-04-16T08:41:20.882Z,1864
2016-04-16T08:42:20.885Z,1880
2016-04-16T08:43:20.869Z,1712
2016-04-16T08:44:20.872Z,1644
2016-04-16T08:45:20.875Z,1764
2016-04-16T08:46:20.878Z,1792
2016-04-16T08:47:20.880Z,1820
2016-04-16T08:48:20.883Z,1828
2016-04-16T08:49:20.885Z,1652
2016-04-16T08:50:20.888Z,1660
2016-04-16T08:51:20.876Z,1680
2016-04-16T08:52:20.894Z,1700
2016-04-16T08:53:20.881Z,1736
2016-04-16T08:54:20.884Z,1712
2016-04-16T08:55:20.902Z,1688
2016-04-16T08:56:20.889Z,1700
2016-04-16T08:57:20.892Z,1664
2016-04-16T08:58:20.894Z,1748
2016-04-16T08:59:20.897Z,1912
2016-04-16T09:00:20.899Z,1960
2016-04-16T09:01:20.887Z,1980
2016-04-16T09:02:20.905Z,2116
2016-04-16T09:03:20.908Z,2192
2016-04-16T09:04:20.911Z,2144
2016-04-16T09:05:20.913Z,2072
2016-04-16T09:06:20.900Z,2084
2016-04-16T09:07:20.903Z,1892
2016-04-16T09:08:20.906Z,1696
2016-04-16T09:09:20.893Z,1568
2016-04-16T09:10:20.911Z,1468
2016-04-16T09:11:20.913Z,1380
2016-04-16T09:12:20.916Z,1292
2016-04-16T09:13:20.904Z,1152
2016-04-16T09:14:20.921Z,1108
2016-04-16T09:15:20.924Z,1096
2016-04-16T09:16:20.912Z,1044
2016-04-16T09:17:20.899Z,1052
2016-04-16T09:18:20.918Z,1060
2016-04-16T09:19:20.919Z,1092
2016-04-16T09:20:20.922Z,1156
2016-04-16T09:21:20.925Z,1256
2016-04-16T09:22:20.912Z,1412
2016-04-16T09:23:20.914Z,1500
2016-04-16T09:24:20.918Z,1556
2016-04-16T09:25:20.920Z,1560
2016-04-16T09:26:20.923Z,1640
2016-04-16T09:27:20.909Z,1644
2016-04-16T09:28:20.912Z,1740
2016-04-16T09:29:20.931Z,1896
2016-04-16T09:30:20.934Z,2036
2016-04-16T09:31:20.921Z,2208
2016-04-16T09:32:20.923Z,2340
2016-04-16T09:33:20.926Z,2316
2016-04-16T09:34:20.913Z,2316
2016-04-16T09:35:20.916Z,2500
2016-04-16T09:36:20.933Z,2688
2016-04-16T09:37:20.952Z,2768
2016-04-16T09:38:20.939Z,2588
2016-04-16T09:39:20.927Z,2516
2016-04-16T09:40:20.930Z,2616
2016-04-16T09:41:20.932Z,2536
2016-04-16T09:42:20.935Z,2480
2016-04-16T09:43:20.921Z,2648
2016-04-16T09:44:20.924Z,2480
2016-04-16T09:45:20.942Z,2288
2016-04-16T09:46:20.929Z,2244
2016-04-16T09:47:20.932Z,2644
2016-04-16T09:48:20.951Z,2496
2016-04-16T09:49:20.937Z,2480
2016-04-16T09:50:20.940Z,2376
2016-04-16T09:51:20.943Z,2268
2016-04-16T09:52:20.946Z,2096
2016-04-16T09:53:20.933Z,2128
2016-04-16T09:54:20.935Z,2092
2016-04-16T09:55:20.938Z,1928
2016-04-16T09:56:20.940Z,2004
2016-04-16T09:57:20.943Z,1936
2016-04-16T09:58:20.946Z,2080
2016-04-16T09:59:20.933Z,2220
2016-04-16T10:00:20.936Z,2380
2016-04-16T10:01:20.953Z,2800
2016-04-16T10:02:20.942Z,2772
2016-04-16T10:03:20.945Z,2608
2016-04-16T10:04:20.947Z,2368
2016-04-16T10:05:20.949Z,2536
2016-04-16T10:06:20.952Z,2728
2016-04-16T10:07:20.955Z,3044
2016-04-16T10:08:20.958Z,2668
2016-04-16T10:09:20.945Z,2564
2016-04-16T10:10:20.963Z,2664
2016-04-16T10:11:20.966Z,2316
2016-04-16T10:12:20.953Z,2300
2016-04-16T10:13:20.971Z,2676
2016-04-16T10:14:20.958Z,2880
2016-04-16T10:15:20.961Z,2572
2016-04-16T10:16:20.964Z,2272
2016-04-16T10:17:20.982Z,2252
2016-04-16T10:18:20.954Z,2436
2016-04-16T10:19:20.971Z,2844
2016-04-16T10:20:20.959Z,2816
2016-04-16T10:21:20.976Z,3012
2016-04-16T10:22:21.010Z,3260
2016-04-16T10:23:20.967Z,3112
2016-04-16T10:24:20.970Z,2968
2016-04-16T10:25:20.988Z,2812
2016-04-16T10:26:20.975Z,3336
2016-04-16T10:27:20.978Z,3796
2016-04-16T10:28:20.964Z,5056
2016-04-16T10:29:20.826Z,5568
2016-04-16T10:30:20.969Z,4760
2016-04-16T10:31:20.972Z,3876
2016-04-16T10:32:20.975Z,3428
2016-04-16T10:33:20.978Z,3516
2016-04-16T10:34:20.980Z,3976
2016-04-16T10:35:20.983Z,4548
2016-04-16T10:36:20.986Z,4956
2016-04-16T10:37:20.973Z,5604
2016-04-16T10:38:20.992Z,6292
2016-04-16T10:39:20.978Z,6812
2016-04-16T10:40:20.981Z,6428
2016-04-16T10:41:20.983Z,5816
2016-04-16T10:42:20.986Z,5392
2016-04-16T10:43:20.989Z,5612
2016-04-16T10:44:21.024Z,7400
2016-04-16T10:45:21.010Z,8188
2016-04-16T10:46:20.997Z,9168
2016-04-16T10:47:21.000Z,8856
2016-04-16T10:48:20.987Z,7440
2016-04-16T10:49:21.005Z,6340
2016-04-16T10:50:20.992Z,5868
2016-04-16T10:51:20.838Z,5776
2016-04-16T10:52:21.012Z,6820
2016-04-16T10:53:21.000Z,5868
2016-04-16T10:54:21.003Z,4916
2016-04-16T10:55:21.006Z,4576
2016-04-16T10:56:21.008Z,4056
2016-04-16T10:57:21.011Z,3764
2016-04-16T10:58:20.998Z,3772
2016-04-16T10:59:21.017Z,3700
2016-04-16T11:00:21.035Z,4356
2016-04-16T11:01:21.023Z,6632
2016-04-16T11:02:21.025Z,7472
2016-04-16T11:03:21.012Z,7836
2016-04-16T11:04:21.030Z,7812
2016-04-16T11:05:21.033Z,6476
2016-04-16T11:06:21.019Z,6276
2016-04-16T11:07:21.038Z,7924
2016-04-16T11:08:21.025Z,8344
2016-04-16T11:09:21.044Z,7212
2016-04-16T11:10:21.031Z,7008
2016-04-16T11:11:21.033Z,7408
2016-04-16T11:12:21.036Z,6780
2016-04-16T11:13:21.038Z,5964
2016-04-16T11:14:21.041Z,6688
2016-04-16T11:15:21.043Z,6644
2016-04-16T11:16:21.030Z,5900
2016-04-16T11:17:21.049Z,4824
2016-04-16T11:18:21.052Z,4468
2016-04-16T11:19:21.038Z,4004
2016-04-16T11:20:21.057Z,3492
2016-04-16T11:21:20.904Z,5272
2016-04-16T11:22:21.094Z,5872
2016-04-16T11:23:21.049Z,5512
2016-04-16T11:24:21.052Z,5984
2016-04-16T11:25:21.055Z,5556
2016-04-16T11:26:21.057Z,4784
2016-04-16T11:27:21.060Z,3824
2016-04-16T11:28:21.063Z,4712
2016-04-16T11:29:21.065Z,6272
2016-04-16T11:30:21.084Z,4912
2016-04-16T11:31:21.070Z,4040
2016-04-16T11:32:21.074Z,5520
2016-04-16T11:33:21.076Z,6148
2016-04-16T11:34:21.095Z,5876
2016-04-16T11:35:21.082Z,4352
2016-04-16T11:36:21.084Z,4548
2016-04-16T11:37:21.291Z,4520
2016-04-16T11:38:21.090Z,4324
2016-04-16T11:39:21.092Z,4252
2016-04-16T11:40:21.095Z,3912
2016-04-16T11:41:21.098Z,4116
2016-04-16T11:42:21.100Z,4768
2016-04-16T11:43:21.103Z,4768
2016-04-16T11:44:21.106Z,4628
2016-04-16T11:45:21.108Z,5060
2016-04-16T11:46:21.111Z,4592
2016-04-16T11:47:21.114Z,4616
2016-04-16T11:48:21.116Z,4924
2016-04-16T11:49:21.119Z,5292
2016-04-16T11:50:21.122Z,5700
2016-04-16T11:51:21.153Z,5988
2016-04-16T11:52:21.247Z,6068
2016-04-16T11:53:21.262Z,6204
2016-04-16T11:54:21.308Z,6368
2016-04-16T11:55:21.340Z,6360
2016-04-16T11:56:21.375Z,7464
2016-04-16T11:57:21.222Z,7240
2016-04-16T11:58:21.411Z,6680
2016-04-16T11:59:21.415Z,6576
2016-04-16T12:00:21.448Z,6748
2016-04-16T12:01:21.456Z,6656
2016-04-16T12:02:21.451Z,6112
2016-04-16T12:03:21.474Z,6212
2016-04-16T12:04:21.467Z,5788
2016-04-16T12:05:21.476Z,5728
2016-04-16T12:06:21.480Z,6152
2016-04-16T12:07:21.579Z,5996
2016-04-16T12:08:21.491Z,6012
2016-04-16T12:09:21.542Z,6340
2016-04-16T12:10:21.501Z,6904
2016-04-16T12:11:21.519Z,6920
2016-04-16T12:12:21.508Z,6816
2016-04-16T12:13:21.511Z,6700
2016-04-16T12:14:21.545Z,6676
2016-04-16T12:15:21.580Z,6604
2016-04-16T12:16:21.521Z,6764
2016-04-16T12:17:21.524Z,6640
2016-04-16T12:18:21.528Z,6636
2016-04-16T12:19:21.545Z,6232
2016-04-16T12:20:21.549Z,6088
2016-04-16T12:21:21.551Z,5956
2016-04-16T12:22:21.711Z,5816
2016-04-16T12:23:21.541Z,5568
2016-04-16T12:24:21.544Z,5560
2016-04-16T12:25:21.547Z,5968
2016-04-16T12:26:21.550Z,6540
2016-04-16T12:27:21.552Z,6640
2016-04-16T12:28:21.555Z,7108
2016-04-16T12:29:21.558Z,6864
2016-04-16T12:30:21.560Z,6900
2016-04-16T12:31:21.563Z,6260
2016-04-16T12:32:21.566Z,6040
2016-04-16T12:33:21.569Z,5680
2016-04-16T12:34:21.571Z,5640
2016-04-16T12:35:21.573Z,6432
2016-04-16T12:36:21.577Z,6644
2016-04-16T12:37:21.735Z,6824
2016-04-16T12:38:21.597Z,6556
2016-04-16T12:39:21.585Z,6856
2016-04-16T12:40:21.587Z,6244
2016-04-16T12:41:21.590Z,6092
2016-04-16T12:42:21.593Z,5468
2016-04-16T12:43:21.610Z,5204
2016-04-16T12:44:21.598Z,4540
2016-04-16T12:45:21.601Z,4096
2016-04-16T12:46:21.603Z,3640
2016-04-16T12:47:21.606Z,4164
2016-04-16T12:48:21.608Z,4544
2016-04-16T12:49:21.612Z,5512
2016-04-16T12:50:21.614Z,5780
2016-04-16T12:51:21.617Z,5736
2016-04-16T12:52:21.620Z,4656
2016-04-16T12:53:21.637Z,4300
2016-04-16T12:54:21.640Z,3944
2016-04-16T12:55:21.627Z,3576
2016-04-16T12:56:21.630Z,3580
2016-04-16T12:57:21.648Z,3656
2016-04-16T12:58:21.635Z,3720
2016-04-16T12:59:21.653Z,3792
2016-04-16T13:00:21.656Z,3884
2016-04-16T13:01:21.659Z,4152
2016-04-16T13:02:21.661Z,3776
2016-04-16T13:03:21.664Z,3936
2016-04-16T13:04:21.666Z,3208
2016-04-16T13:05:21.654Z,3060
2016-04-16T13:06:21.657Z,3020
2016-04-16T13:07:21.660Z,2884
2016-04-16T13:08:21.662Z,2716
2016-04-16T13:09:21.696Z,2416
2016-04-16T13:10:21.668Z,2196
2016-04-16T13:11:21.670Z,2072
2016-04-16T13:12:21.673Z,1980
2016-04-16T13:13:21.676Z,1996
2016-04-16T13:14:21.725Z,1972
2016-04-16T13:15:21.682Z,1968
2016-04-16T13:16:21.699Z,1968
2016-04-16T13:17:21.686Z,1960
2016-04-16T13:18:21.704Z,2012
2016-04-16T13:19:21.895Z,2108
2016-04-16T13:20:21.695Z,2016
2016-04-16T13:21:21.713Z,1964
2016-04-16T13:22:21.700Z,1940
2016-04-16T13:23:21.703Z,1920
2016-04-16T13:24:21.706Z,1932
2016-04-16T13:25:21.708Z,1996
2016-04-16T13:26:21.711Z,2064
2016-04-16T13:27:21.714Z,2108
2016-04-16T13:28:21.731Z,2088
2016-04-16T13:29:21.719Z,2292
2016-04-16T13:30:21.736Z,2672
2016-04-16T13:31:21.724Z,2696
2016-04-16T13:32:21.727Z,2664
2016-04-16T13:33:21.729Z,2572
2016-04-16T13:34:21.576Z,2420
2016-04-16T13:35:21.735Z,2312
2016-04-16T13:36:21.738Z,2452
2016-04-16T13:37:21.741Z,2592
2016-04-16T13:38:21.743Z,2760
2016-04-16T13:39:21.746Z,2652
2016-04-16T13:40:21.748Z,2524
2016-04-16T13:41:21.751Z,2736
2016-04-16T13:42:21.754Z,2724
2016-04-16T13:43:21.756Z,2836
2016-04-16T13:44:21.760Z,3020
2016-04-16T13:45:21.762Z,3024
2016-04-16T13:46:21.765Z,2924
2016-04-16T13:47:21.768Z,2828